Bo Carite, Puerto Rico
Current Conditions -  °F | °C
As of 1:12 AM on Saturday 22 Nov 2014 (Local Time) from TJSJ Reporting Station
Moderate Rain Moderate Rain  
Wind Chill: 73°   Ceiling: 3500
Heat Index: 73°   Visibility: 5mi
Dew Point: 73°   Wind: 3mph
Humidity: 100%   Direction: 170°S
Pressure: 30.01"   Gusts: 22mph
Location:  18.1193°N, 66.1642°W
Report Text: TJSJ 220512Z 17003G19KT 5SM RA FEW014 BKN035 BKN040 23/23 A3001 RMK AO2 RAB01 P0040
Loading
Personal Weather Stations






























Interactive Weather Map New forecast layout! Learn more

10-Day Weather Forecast

Advertisements
Track Severe Weather on mobile